sensor_id;sensor_type;location;lat;lon;timestamp;P1;durP1;ratioP1;P2;durP2;ratioP2
19985;SDS011;10154;52.474;10.768;2022-12-24T00:07:15;9.77;;;4.67;;
19985;SDS011;10154;52.474;10.768;2022-12-24T00:09:40;8.47;;;4.57;;
19985;SDS011;10154;52.474;10.768;2022-12-24T00:12:06;7.07;;;3.97;;
19985;SDS011;10154;52.474;10.768;2022-12-24T00:14:31;9.83;;;5.03;;
19985;SDS011;10154;52.474;10.768;2022-12-24T00:16:57;9.23;;;4.43;;
19985;SDS011;10154;52.474;10.768;2022-12-24T00:19:22;8.10;;;4.23;;
19985;SDS011;10154;52.474;10.768;2022-12-24T00:21:47;9.00;;;4.50;;
19985;SDS011;10154;52.474;10.768;2022-12-24T00:24:16;8.37;;;4.30;;
19985;SDS011;10154;52.474;10.768;2022-12-24T00:26:41;9.63;;;4.80;;
19985;SDS011;10154;52.474;10.768;2022-12-24T00:29:07;7.30;;;3.70;;
19985;SDS011;10154;52.474;10.768;2022-12-24T00:31:33;8.87;;;4.20;;
19985;SDS011;10154;52.474;10.768;2022-12-24T00:33:58;9.43;;;4.50;;
19985;SDS011;10154;52.474;10.768;2022-12-24T00:36:30;9.03;;;4.37;;
19985;SDS011;10154;52.474;10.768;2022-12-24T00:38:56;9.37;;;4.20;;
19985;SDS011;10154;52.474;10.768;2022-12-24T00:41:21;9.17;;;4.80;;
19985;SDS011;10154;52.474;10.768;2022-12-24T00:43:50;11.43;;;4.77;;
19985;SDS011;10154;52.474;10.768;2022-12-24T00:46:16;10.07;;;4.43;;
19985;SDS011;10154;52.474;10.768;2022-12-24T00:48:42;8.20;;;4.33;;
19985;SDS011;10154;52.474;10.768;2022-12-24T00:51:07;9.57;;;4.77;;
19985;SDS011;10154;52.474;10.768;2022-12-24T00:53:32;11.67;;;4.70;;
19985;SDS011;10154;52.474;10.768;2022-12-24T00:55:58;7.77;;;4.60;;
19985;SDS011;10154;52.474;10.768;2022-12-24T00:58:23;8.83;;;4.80;;
19985;SDS011;10154;52.474;10.768;2022-12-24T01:00:48;11.83;;;5.57;;
19985;SDS011;10154;52.474;10.768;2022-12-24T01:03:14;10.93;;;5.07;;
19985;SDS011;10154;52.474;10.768;2022-12-24T01:05:42;10.40;;;5.20;;
19985;SDS011;10154;52.474;10.768;2022-12-24T01:08:08;10.57;;;5.20;;
19985;SDS011;10154;52.474;10.768;2022-12-24T01:10:43;11.00;;;5.33;;
19985;SDS011;10154;52.474;10.768;2022-12-24T01:13:27;11.10;;;5.20;;
19985;SDS011;10154;52.474;10.768;2022-12-24T01:15:53;9.60;;;5.13;;
19985;SDS011;10154;52.474;10.768;2022-12-24T01:18:19;11.20;;;5.50;;
19985;SDS011;10154;52.474;10.768;2022-12-24T01:20:44;9.50;;;4.73;;
19985;SDS011;10154;52.474;10.768;2022-12-24T01:23:10;9.73;;;4.87;;
19985;SDS011;10154;52.474;10.768;2022-12-24T01:25:38;12.67;;;5.67;;
19985;SDS011;10154;52.474;10.768;2022-12-24T01:28:05;13.30;;;5.83;;
19985;SDS011;10154;52.474;10.768;2022-12-24T01:30:31;11.57;;;5.27;;
19985;SDS011;10154;52.474;10.768;2022-12-24T01:32:56;12.40;;;5.53;;
19985;SDS011;10154;52.474;10.768;2022-12-24T01:35:22;12.73;;;6.00;;
19985;SDS011;10154;52.474;10.768;2022-12-24T01:37:47;11.47;;;5.30;;
19985;SDS011;10154;52.474;10.768;2022-12-24T01:40:14;11.53;;;5.33;;
19985;SDS011;10154;52.474;10.768;2022-12-24T01:42:59;11.70;;;5.60;;
19985;SDS011;10154;52.474;10.768;2022-12-24T01:51:25;11.17;;;5.37;;
19985;SDS011;10154;52.474;10.768;2022-12-24T01:53:55;13.37;;;5.33;;
19985;SDS011;10154;52.474;10.768;2022-12-24T01:56:43;12.70;;;6.33;;
19985;SDS011;10154;52.474;10.768;2022-12-24T01:59:30;13.17;;;6.00;;
19985;SDS011;10154;52.474;10.768;2022-12-24T02:01:56;13.47;;;6.10;;
19985;SDS011;10154;52.474;10.768;2022-12-24T02:04:27;16.40;;;6.77;;
19985;SDS011;10154;52.474;10.768;2022-12-24T02:06:58;13.23;;;6.30;;
19985;SDS011;10154;52.474;10.768;2022-12-24T02:09:24;12.40;;;6.10;;
19985;SDS011;10154;52.474;10.768;2022-12-24T02:11:50;13.60;;;6.07;;
19985;SDS011;10154;52.474;10.768;2022-12-24T02:14:18;16.10;;;6.60;;
19985;SDS011;10154;52.474;10.768;2022-12-24T02:21:49;17.17;;;7.47;;
19985;SDS011;10154;52.474;10.768;2022-12-24T02:24:35;14.63;;;6.67;;
19985;SDS011;10154;52.474;10.768;2022-12-24T02:37:37;13.73;;;6.47;;
19985;SDS011;10154;52.474;10.768;2022-12-24T02:40:07;12.67;;;6.33;;
19985;SDS011;10154;52.474;10.768;2022-12-24T02:42:37;12.87;;;6.40;;
19985;SDS011;10154;52.474;10.768;2022-12-24T02:45:07;15.90;;;6.57;;
19985;SDS011;10154;52.474;10.768;2022-12-24T02:47:40;15.53;;;6.80;;
19985;SDS011;10154;52.474;10.768;2022-12-24T02:50:08;12.73;;;6.07;;
19985;SDS011;10154;52.474;10.768;2022-12-24T02:52:37;14.23;;;6.23;;
19985;SDS011;10154;52.474;10.768;2022-12-24T02:55:09;13.20;;;5.83;;
19985;SDS011;10154;52.474;10.768;2022-12-24T02:58:04;12.63;;;6.07;;
19985;SDS011;10154;52.474;10.768;2022-12-24T03:05:41;11.50;;;5.57;;
19985;SDS011;10154;52.474;10.768;2022-12-24T03:08:23;13.70;;;6.00;;
19985;SDS011;10154;52.474;10.768;2022-12-24T03:11:01;13.43;;;6.93;;
19985;SDS011;10154;52.474;10.768;2022-12-24T03:13:58;14.43;;;6.87;;
19985;SDS011;10154;52.474;10.768;2022-12-24T03:16:26;14.50;;;6.80;;
19985;SDS011;10154;52.474;10.768;2022-12-24T03:18:52;12.97;;;5.97;;
19985;SDS011;10154;52.474;10.768;2022-12-24T03:21:32;12.83;;;6.27;;
19985;SDS011;10154;52.474;10.768;2022-12-24T03:23:59;11.87;;;5.90;;
19985;SDS011;10154;52.474;10.768;2022-12-24T03:26:24;12.20;;;5.73;;
19985;SDS011;10154;52.474;10.768;2022-12-24T03:28:51;10.73;;;5.83;;
19985;SDS011;10154;52.474;10.768;2022-12-24T03:31:17;13.00;;;6.40;;
19985;SDS011;10154;52.474;10.768;2022-12-24T03:33:43;12.63;;;6.10;;
19985;SDS011;10154;52.474;10.768;2022-12-24T03:36:08;9.77;;;4.67;;
19985;SDS011;10154;52.474;10.768;2022-12-24T03:38:34;9.83;;;4.77;;
19985;SDS011;10154;52.474;10.768;2022-12-24T03:41:00;7.43;;;4.20;;
19985;SDS011;10154;52.474;10.768;2022-12-24T03:43:25;9.80;;;5.17;;
19985;SDS011;10154;52.474;10.768;2022-12-24T03:45:51;8.77;;;4.80;;
19985;SDS011;10154;52.474;10.768;2022-12-24T03:48:16;7.70;;;4.50;;
19985;SDS011;10154;52.474;10.768;2022-12-24T03:50:41;9.63;;;4.43;;
19985;SDS011;10154;52.474;10.768;2022-12-24T03:53:07;8.77;;;4.70;;
19985;SDS011;10154;52.474;10.768;2022-12-24T03:55:32;7.87;;;3.80;;
19985;SDS011;10154;52.474;10.768;2022-12-24T03:57:57;8.60;;;4.43;;
19985;SDS011;10154;52.474;10.768;2022-12-24T04:00:23;7.77;;;4.00;;
19985;SDS011;10154;52.474;10.768;2022-12-24T04:02:48;12.40;;;3.97;;
19985;SDS011;10154;52.474;10.768;2022-12-24T04:05:15;6.67;;;3.50;;
19985;SDS011;10154;52.474;10.768;2022-12-24T04:07:45;7.00;;;3.93;;
19985;SDS011;10154;52.474;10.768;2022-12-24T04:10:14;8.40;;;4.20;;
19985;SDS011;10154;52.474;10.768;2022-12-24T04:12:43;8.20;;;3.97;;
19985;SDS011;10154;52.474;10.768;2022-12-24T04:15:09;8.67;;;4.47;;
19985;SDS011;10154;52.474;10.768;2022-12-24T04:17:34;6.33;;;3.57;;
19985;SDS011;10154;52.474;10.768;2022-12-24T04:20:00;11.73;;;4.20;;
19985;SDS011;10154;52.474;10.768;2022-12-24T04:22:25;8.00;;;4.13;;
19985;SDS011;10154;52.474;10.768;2022-12-24T04:24:50;10.17;;;4.60;;
19985;SDS011;10154;52.474;10.768;2022-12-24T04:27:16;8.67;;;4.50;;
19985;SDS011;10154;52.474;10.768;2022-12-24T04:29:41;8.43;;;4.27;;
19985;SDS011;10154;52.474;10.768;2022-12-24T04:32:07;7.97;;;4.27;;
19985;SDS011;10154;52.474;10.768;2022-12-24T04:34:34;7.20;;;3.70;;
19985;SDS011;10154;52.474;10.768;2022-12-24T04:36:59;9.30;;;4.20;;
19985;SDS011;10154;52.474;10.768;2022-12-24T04:39:24;8.97;;;3.97;;
19985;SDS011;10154;52.474;10.768;2022-12-24T04:41:50;7.33;;;3.83;;
19985;SDS011;10154;52.474;10.768;2022-12-24T04:44:15;9.80;;;4.70;;
19985;SDS011;10154;52.474;10.768;2022-12-24T04:46:40;8.10;;;4.00;;
19985;SDS011;10154;52.474;10.768;2022-12-24T04:49:06;8.90;;;4.17;;
19985;SDS011;10154;52.474;10.768;2022-12-24T04:51:38;7.13;;;3.70;;
19985;SDS011;10154;52.474;10.768;2022-12-24T04:54:12;8.27;;;3.63;;
19985;SDS011;10154;52.474;10.768;2022-12-24T04:56:44;7.67;;;3.57;;
19985;SDS011;10154;52.474;10.768;2022-12-24T04:59:09;8.30;;;4.00;;
19985;SDS011;10154;52.474;10.768;2022-12-24T05:01:34;9.30;;;3.93;;
19985;SDS011;10154;52.474;10.768;2022-12-24T05:04:00;8.90;;;3.97;;
19985;SDS011;10154;52.474;10.768;2022-12-24T05:06:28;6.40;;;3.17;;
19985;SDS011;10154;52.474;10.768;2022-12-24T05:08:55;6.97;;;3.00;;
19985;SDS011;10154;52.474;10.768;2022-12-24T05:11:20;6.77;;;2.87;;
19985;SDS011;10154;52.474;10.768;2022-12-24T05:13:46;5.13;;;2.80;;
19985;SDS011;10154;52.474;10.768;2022-12-24T05:16:12;6.07;;;2.80;;
19985;SDS011;10154;52.474;10.768;2022-12-24T05:18:38;7.03;;;3.20;;
19985;SDS011;10154;52.474;10.768;2022-12-24T05:21:07;5.70;;;2.73;;
19985;SDS011;10154;52.474;10.768;2022-12-24T05:23:33;6.73;;;3.00;;
19985;SDS011;10154;52.474;10.768;2022-12-24T05:26:22;5.53;;;2.73;;
19985;SDS011;10154;52.474;10.768;2022-12-24T05:28:58;4.90;;;2.70;;
19985;SDS011;10154;52.474;10.768;2022-12-24T05:31:25;3.47;;;2.03;;
19985;SDS011;10154;52.474;10.768;2022-12-24T05:33:51;4.77;;;2.00;;
19985;SDS011;10154;52.474;10.768;2022-12-24T05:36:18;3.47;;;1.80;;
19985;SDS011;10154;52.474;10.768;2022-12-24T05:38:43;5.67;;;2.30;;
19985;SDS011;10154;52.474;10.768;2022-12-24T05:41:09;3.67;;;2.37;;
19985;SDS011;10154;52.474;10.768;2022-12-24T05:43:37;5.63;;;2.20;;
19985;SDS011;10154;52.474;10.768;2022-12-24T05:46:04;4.40;;;2.47;;
19985;SDS011;10154;52.474;10.768;2022-12-24T05:48:31;5.00;;;2.40;;
19985;SDS011;10154;52.474;10.768;2022-12-24T05:50:56;4.47;;;2.33;;
19985;SDS011;10154;52.474;10.768;2022-12-24T05:53:22;6.40;;;2.70;;
19985;SDS011;10154;52.474;10.768;2022-12-24T05:55:47;5.17;;;2.50;;
19985;SDS011;10154;52.474;10.768;2022-12-24T05:58:13;5.10;;;2.53;;
19985;SDS011;10154;52.474;10.768;2022-12-24T06:00:39;4.60;;;2.23;;
19985;SDS011;10154;52.474;10.768;2022-12-24T06:03:04;7.17;;;3.07;;
19985;SDS011;10154;52.474;10.768;2022-12-24T06:05:29;3.40;;;2.30;;
19985;SDS011;10154;52.474;10.768;2022-12-24T06:07:55;5.33;;;2.43;;
19985;SDS011;10154;52.474;10.768;2022-12-24T06:10:20;4.27;;;2.47;;
19985;SDS011;10154;52.474;10.768;2022-12-24T06:12:48;6.40;;;2.40;;
19985;SDS011;10154;52.474;10.768;2022-12-24T06:15:14;6.33;;;2.20;;
19985;SDS011;10154;52.474;10.768;2022-12-24T06:17:39;6.63;;;2.20;;
19985;SDS011;10154;52.474;10.768;2022-12-24T06:20:05;6.13;;;2.40;;
19985;SDS011;10154;52.474;10.768;2022-12-24T06:22:31;3.47;;;1.93;;
19985;SDS011;10154;52.474;10.768;2022-12-24T06:24:57;5.37;;;1.93;;
19985;SDS011;10154;52.474;10.768;2022-12-24T06:27:22;4.93;;;2.00;;
19985;SDS011;10154;52.474;10.768;2022-12-24T06:29:48;9.07;;;2.40;;
19985;SDS011;10154;52.474;10.768;2022-12-24T06:32:14;5.70;;;2.40;;
19985;SDS011;10154;52.474;10.768;2022-12-24T06:34:39;9.43;;;5.07;;
19985;SDS011;10154;52.474;10.768;2022-12-24T06:37:04;9.00;;;2.37;;
19985;SDS011;10154;52.474;10.768;2022-12-24T06:39:30;8.33;;;2.30;;
19985;SDS011;10154;52.474;10.768;2022-12-24T06:41:55;14.57;;;3.10;;
19985;SDS011;10154;52.474;10.768;2022-12-24T06:44:21;12.83;;;2.60;;
19985;SDS011;10154;52.474;10.768;2022-12-24T06:46:46;14.23;;;3.00;;
19985;SDS011;10154;52.474;10.768;2022-12-24T06:49:11;16.47;;;2.93;;
19985;SDS011;10154;52.474;10.768;2022-12-24T06:51:37;20.93;;;3.63;;
19985;SDS011;10154;52.474;10.768;2022-12-24T06:54:02;15.17;;;3.27;;
19985;SDS011;10154;52.474;10.768;2022-12-24T06:56:28;14.40;;;2.97;;
19985;SDS011;10154;52.474;10.768;2022-12-24T06:58:53;18.07;;;2.53;;
19985;SDS011;10154;52.474;10.768;2022-12-24T07:01:19;20.60;;;3.13;;
19985;SDS011;10154;52.474;10.768;2022-12-24T07:03:45;18.03;;;3.10;;
19985;SDS011;10154;52.474;10.768;2022-12-24T07:06:27;21.03;;;3.57;;
19985;SDS011;10154;52.474;10.768;2022-12-24T07:08:53;21.53;;;3.77;;
19985;SDS011;10154;52.474;10.768;2022-12-24T07:11:19;19.80;;;2.83;;
19985;SDS011;10154;52.474;10.768;2022-12-24T07:13:45;24.07;;;3.60;;
19985;SDS011;10154;52.474;10.768;2022-12-24T07:16:11;20.63;;;3.33;;
19985;SDS011;10154;52.474;10.768;2022-12-24T07:18:36;24.00;;;4.77;;
19985;SDS011;10154;52.474;10.768;2022-12-24T07:21:02;20.07;;;4.10;;
19985;SDS011;10154;52.474;10.768;2022-12-24T07:23:28;18.07;;;2.93;;
19985;SDS011;10154;52.474;10.768;2022-12-24T07:25:58;25.33;;;3.93;;
19985;SDS011;10154;52.474;10.768;2022-12-24T07:28:24;26.03;;;4.80;;
19985;SDS011;10154;52.474;10.768;2022-12-24T07:30:49;23.57;;;4.50;;
19985;SDS011;10154;52.474;10.768;2022-12-24T07:33:15;12.07;;;2.73;;
19985;SDS011;10154;52.474;10.768;2022-12-24T07:35:40;29.00;;;4.70;;
19985;SDS011;10154;52.474;10.768;2022-12-24T07:38:06;25.20;;;4.33;;
19985;SDS011;10154;52.474;10.768;2022-12-24T07:40:32;28.10;;;4.37;;
19985;SDS011;10154;52.474;10.768;2022-12-24T07:42:58;21.97;;;4.80;;
19985;SDS011;10154;52.474;10.768;2022-12-24T07:45:23;26.83;;;5.00;;
19985;SDS011;10154;52.474;10.768;2022-12-24T07:47:49;17.57;;;4.30;;
19985;SDS011;10154;52.474;10.768;2022-12-24T07:50:14;27.97;;;4.83;;
19985;SDS011;10154;52.474;10.768;2022-12-24T07:52:39;23.13;;;4.53;;
19985;SDS011;10154;52.474;10.768;2022-12-24T07:55:05;29.70;;;5.03;;
19985;SDS011;10154;52.474;10.768;2022-12-24T07:57:30;30.27;;;5.20;;
19985;SDS011;10154;52.474;10.768;2022-12-24T07:59:56;34.60;;;5.37;;
19985;SDS011;10154;52.474;10.768;2022-12-24T08:02:21;32.77;;;5.30;;
19985;SDS011;10154;52.474;10.768;2022-12-24T08:04:49;32.33;;;5.47;;
19985;SDS011;10154;52.474;10.768;2022-12-24T08:07:14;26.90;;;5.30;;
19985;SDS011;10154;52.474;10.768;2022-12-24T08:09:40;30.90;;;4.40;;
19985;SDS011;10154;52.474;10.768;2022-12-24T08:12:05;32.87;;;5.47;;
19985;SDS011;10154;52.474;10.768;2022-12-24T08:14:31;30.03;;;5.00;;
19985;SDS011;10154;52.474;10.768;2022-12-24T08:16:56;33.07;;;5.27;;
19985;SDS011;10154;52.474;10.768;2022-12-24T08:19:22;31.03;;;5.30;;
19985;SDS011;10154;52.474;10.768;2022-12-24T08:21:48;33.90;;;4.83;;
19985;SDS011;10154;52.474;10.768;2022-12-24T08:24:13;35.00;;;6.20;;
19985;SDS011;10154;52.474;10.768;2022-12-24T08:26:39;26.27;;;5.67;;
19985;SDS011;10154;52.474;10.768;2022-12-24T08:29:05;35.17;;;5.03;;
19985;SDS011;10154;52.474;10.768;2022-12-24T08:31:34;33.47;;;5.07;;
19985;SDS011;10154;52.474;10.768;2022-12-24T08:34:03;28.10;;;5.13;;
19985;SDS011;10154;52.474;10.768;2022-12-24T08:36:30;26.70;;;4.23;;
19985;SDS011;10154;52.474;10.768;2022-12-24T08:38:55;31.00;;;4.13;;
19985;SDS011;10154;52.474;10.768;2022-12-24T08:41:21;20.20;;;3.97;;
19985;SDS011;10154;52.474;10.768;2022-12-24T08:43:46;28.60;;;4.37;;
19985;SDS011;10154;52.474;10.768;2022-12-24T08:46:11;33.13;;;4.43;;
19985;SDS011;10154;52.474;10.768;2022-12-24T08:48:37;33.33;;;4.10;;
19985;SDS011;10154;52.474;10.768;2022-12-24T08:51:08;24.20;;;3.87;;
19985;SDS011;10154;52.474;10.768;2022-12-24T08:53:35;19.37;;;3.50;;
19985;SDS011;10154;52.474;10.768;2022-12-24T08:56:02;24.70;;;4.20;;
19985;SDS011;10154;52.474;10.768;2022-12-24T08:58:29;28.70;;;4.17;;
19985;SDS011;10154;52.474;10.768;2022-12-24T09:00:55;29.03;;;3.90;;
19985;SDS011;10154;52.474;10.768;2022-12-24T09:03:20;26.20;;;3.87;;
19985;SDS011;10154;52.474;10.768;2022-12-24T09:05:46;36.40;;;6.10;;
19985;SDS011;10154;52.474;10.768;2022-12-24T09:08:11;24.70;;;4.10;;
19985;SDS011;10154;52.474;10.768;2022-12-24T09:17:20;20.47;;;3.43;;
19985;SDS011;10154;52.474;10.768;2022-12-24T09:19:46;27.87;;;3.80;;
19985;SDS011;10154;52.474;10.768;2022-12-24T09:22:11;20.63;;;4.40;;
19985;SDS011;10154;52.474;10.768;2022-12-24T09:24:37;25.40;;;4.17;;
19985;SDS011;10154;52.474;10.768;2022-12-24T09:27:03;30.10;;;4.40;;
19985;SDS011;10154;52.474;10.768;2022-12-24T09:29:29;30.50;;;4.77;;
19985;SDS011;10154;52.474;10.768;2022-12-24T09:31:55;26.17;;;3.77;;
19985;SDS011;10154;52.474;10.768;2022-12-24T09:34:21;29.33;;;3.77;;
19985;SDS011;10154;52.474;10.768;2022-12-24T09:36:47;24.10;;;4.47;;
19985;SDS011;10154;52.474;10.768;2022-12-24T09:39:13;29.60;;;4.17;;
19985;SDS011;10154;52.474;10.768;2022-12-24T09:41:49;24.23;;;4.07;;
19985;SDS011;10154;52.474;10.768;2022-12-24T09:47:31;33.10;;;4.10;;
19985;SDS011;10154;52.474;10.768;2022-12-24T09:50:00;22.03;;;3.53;;
19985;SDS011;10154;52.474;10.768;2022-12-24T09:52:37;22.10;;;4.00;;
19985;SDS011;10154;52.474;10.768;2022-12-24T09:57:36;30.13;;;4.30;;
19985;SDS011;10154;52.474;10.768;2022-12-24T10:00:03;23.87;;;3.43;;
19985;SDS011;10154;52.474;10.768;2022-12-24T10:02:30;25.07;;;3.60;;
19985;SDS011;10154;52.474;10.768;2022-12-24T10:04:56;20.53;;;3.37;;
19985;SDS011;10154;52.474;10.768;2022-12-24T10:15:30;25.63;;;5.33;;
19985;SDS011;10154;52.474;10.768;2022-12-24T10:18:05;26.87;;;3.97;;
19985;SDS011;10154;52.474;10.768;2022-12-24T10:21:10;29.67;;;3.73;;
19985;SDS011;10154;52.474;10.768;2022-12-24T10:26:17;25.00;;;4.30;;
19985;SDS011;10154;52.474;10.768;2022-12-24T10:28:48;22.63;;;3.70;;
19985;SDS011;10154;52.474;10.768;2022-12-24T10:31:18;23.03;;;3.67;;
19985;SDS011;10154;52.474;10.768;2022-12-24T10:33:46;23.63;;;3.57;;
19985;SDS011;10154;52.474;10.768;2022-12-24T10:36:22;19.13;;;3.57;;
19985;SDS011;10154;52.474;10.768;2022-12-24T10:38:51;29.73;;;3.40;;
19985;SDS011;10154;52.474;10.768;2022-12-24T10:41:17;27.03;;;3.73;;
19985;SDS011;10154;52.474;10.768;2022-12-24T10:43:43;21.77;;;3.43;;
19985;SDS011;10154;52.474;10.768;2022-12-24T10:46:30;20.47;;;3.47;;
19985;SDS011;10154;52.474;10.768;2022-12-24T10:49:02;24.53;;;4.40;;
19985;SDS011;10154;52.474;10.768;2022-12-24T10:53:59;25.70;;;4.30;;
19985;SDS011;10154;52.474;10.768;2022-12-24T10:56:30;22.60;;;4.07;;
19985;SDS011;10154;52.474;10.768;2022-12-24T10:58:56;31.93;;;6.00;;
19985;SDS011;10154;52.474;10.768;2022-12-24T11:01:43;35.73;;;6.30;;
19985;SDS011;10154;52.474;10.768;2022-12-24T11:04:13;30.53;;;5.37;;
19985;SDS011;10154;52.474;10.768;2022-12-24T11:07:03;24.93;;;4.60;;
19985;SDS011;10154;52.474;10.768;2022-12-24T11:09:38;23.00;;;4.60;;
19985;SDS011;10154;52.474;10.768;2022-12-24T11:12:05;21.00;;;5.00;;
19985;SDS011;10154;52.474;10.768;2022-12-24T11:14:41;31.50;;;5.00;;
19985;SDS011;10154;52.474;10.768;2022-12-24T11:17:06;35.13;;;5.10;;
19985;SDS011;10154;52.474;10.768;2022-12-24T11:19:46;27.57;;;5.27;;
19985;SDS011;10154;52.474;10.768;2022-12-24T11:24:56;30.87;;;4.87;;
19985;SDS011;10154;52.474;10.768;2022-12-24T11:27:26;31.60;;;4.87;;
19985;SDS011;10154;52.474;10.768;2022-12-24T11:32:40;26.53;;;5.00;;
19985;SDS011;10154;52.474;10.768;2022-12-24T11:35:06;39.43;;;5.93;;
19985;SDS011;10154;52.474;10.768;2022-12-24T11:37:33;24.90;;;4.97;;
19985;SDS011;10154;52.474;10.768;2022-12-24T11:39:59;29.23;;;5.10;;
19985;SDS011;10154;52.474;10.768;2022-12-24T11:42:32;27.10;;;4.97;;
19985;SDS011;10154;52.474;10.768;2022-12-24T11:45:05;33.10;;;5.07;;
19985;SDS011;10154;52.474;10.768;2022-12-24T11:47:38;25.57;;;5.90;;
19985;SDS011;10154;52.474;10.768;2022-12-24T11:53:12;35.53;;;8.10;;
19985;SDS011;10154;52.474;10.768;2022-12-24T12:01:02;28.40;;;5.63;;
19985;SDS011;10154;52.474;10.768;2022-12-24T12:03:38;23.50;;;6.37;;
19985;SDS011;10154;52.474;10.768;2022-12-24T12:06:18;30.63;;;5.43;;
19985;SDS011;10154;52.474;10.768;2022-12-24T12:08:44;24.97;;;5.63;;
19985;SDS011;10154;52.474;10.768;2022-12-24T12:11:11;31.50;;;5.63;;
19985;SDS011;10154;52.474;10.768;2022-12-24T12:13:39;31.80;;;6.23;;
19985;SDS011;10154;52.474;10.768;2022-12-24T12:18:45;34.67;;;7.87;;
19985;SDS011;10154;52.474;10.768;2022-12-24T12:21:16;34.10;;;8.87;;
19985;SDS011;10154;52.474;10.768;2022-12-24T12:23:48;37.60;;;6.20;;
19985;SDS011;10154;52.474;10.768;2022-12-24T12:26:28;26.37;;;6.37;;
19985;SDS011;10154;52.474;10.768;2022-12-24T12:29:05;26.43;;;6.60;;
19985;SDS011;10154;52.474;10.768;2022-12-24T12:31:49;40.77;;;11.63;;
19985;SDS011;10154;52.474;10.768;2022-12-24T12:34:41;33.10;;;6.57;;
19985;SDS011;10154;52.474;10.768;2022-12-24T12:37:19;30.83;;;6.60;;
19985;SDS011;10154;52.474;10.768;2022-12-24T12:39:53;31.67;;;5.50;;
19985;SDS011;10154;52.474;10.768;2022-12-24T12:42:32;37.03;;;6.90;;
19985;SDS011;10154;52.474;10.768;2022-12-24T12:45:12;37.10;;;5.97;;
19985;SDS011;10154;52.474;10.768;2022-12-24T12:47:56;37.03;;;6.63;;
19985;SDS011;10154;52.474;10.768;2022-12-24T12:50:35;31.57;;;6.40;;
19985;SDS011;10154;52.474;10.768;2022-12-24T12:53:23;38.80;;;6.07;;
19985;SDS011;10154;52.474;10.768;2022-12-24T13:04:38;25.83;;;5.73;;
19985;SDS011;10154;52.474;10.768;2022-12-24T13:20:25;31.53;;;6.03;;
19985;SDS011;10154;52.474;10.768;2022-12-24T13:22:59;32.53;;;7.47;;
19985;SDS011;10154;52.474;10.768;2022-12-24T13:25:28;33.20;;;6.37;;
19985;SDS011;10154;52.474;10.768;2022-12-24T13:28:12;29.57;;;6.10;;
19985;SDS011;10154;52.474;10.768;2022-12-24T13:30:42;33.87;;;5.77;;
19985;SDS011;10154;52.474;10.768;2022-12-24T13:33:09;30.27;;;6.80;;
19985;SDS011;10154;52.474;10.768;2022-12-24T13:35:36;23.10;;;5.10;;
19985;SDS011;10154;52.474;10.768;2022-12-24T13:40:53;18.67;;;4.43;;
19985;SDS011;10154;52.474;10.768;2022-12-24T13:43:19;24.50;;;4.53;;
19985;SDS011;10154;52.474;10.768;2022-12-24T13:45:50;23.57;;;4.63;;
19985;SDS011;10154;52.474;10.768;2022-12-24T13:48:28;22.23;;;4.63;;
19985;SDS011;10154;52.474;10.768;2022-12-24T13:50:59;22.27;;;4.03;;
19985;SDS011;10154;52.474;10.768;2022-12-24T13:58:36;18.53;;;4.30;;
19985;SDS011;10154;52.474;10.768;2022-12-24T14:01:05;21.70;;;4.87;;
19985;SDS011;10154;52.474;10.768;2022-12-24T14:03:40;21.73;;;5.13;;
19985;SDS011;10154;52.474;10.768;2022-12-24T14:06:09;26.93;;;4.70;;
19985;SDS011;10154;52.474;10.768;2022-12-24T14:08:55;19.10;;;4.57;;
19985;SDS011;10154;52.474;10.768;2022-12-24T14:11:28;20.53;;;4.33;;
19985;SDS011;10154;52.474;10.768;2022-12-24T14:16:51;19.07;;;4.27;;
19985;SDS011;10154;52.474;10.768;2022-12-24T14:24:50;17.57;;;4.47;;
19985;SDS011;10154;52.474;10.768;2022-12-24T14:27:20;16.10;;;3.73;;
19985;SDS011;10154;52.474;10.768;2022-12-24T14:29:50;15.93;;;3.77;;
19985;SDS011;10154;52.474;10.768;2022-12-24T14:32:17;21.87;;;3.97;;
19985;SDS011;10154;52.474;10.768;2022-12-24T14:34:43;20.43;;;3.67;;
19985;SDS011;10154;52.474;10.768;2022-12-24T14:37:09;20.67;;;3.87;;
19985;SDS011;10154;52.474;10.768;2022-12-24T14:39:38;19.73;;;4.43;;
19985;SDS011;10154;52.474;10.768;2022-12-24T14:44:46;14.20;;;3.40;;
19985;SDS011;10154;52.474;10.768;2022-12-24T14:55:41;13.60;;;2.93;;
19985;SDS011;10154;52.474;10.768;2022-12-24T15:00:55;8.63;;;2.43;;
19985;SDS011;10154;52.474;10.768;2022-12-24T15:03:23;9.37;;;2.10;;
19985;SDS011;10154;52.474;10.768;2022-12-24T15:06:12;5.53;;;1.60;;
19985;SDS011;10154;52.474;10.768;2022-12-24T15:08:38;6.77;;;1.77;;
19985;SDS011;10154;52.474;10.768;2022-12-24T15:11:08;7.93;;;1.80;;
19985;SDS011;10154;52.474;10.768;2022-12-24T15:13:38;7.80;;;1.80;;
19985;SDS011;10154;52.474;10.768;2022-12-24T15:16:07;7.63;;;2.00;;
19985;SDS011;10154;52.474;10.768;2022-12-24T15:18:35;6.80;;;1.80;;
19985;SDS011;10154;52.474;10.768;2022-12-24T15:21:04;8.27;;;1.77;;
19985;SDS011;10154;52.474;10.768;2022-12-24T15:23:32;8.43;;;1.80;;
19985;SDS011;10154;52.474;10.768;2022-12-24T15:26:23;8.13;;;1.83;;
19985;SDS011;10154;52.474;10.768;2022-12-24T15:28:54;4.57;;;1.47;;
19985;SDS011;10154;52.474;10.768;2022-12-24T15:31:22;6.37;;;1.43;;
19985;SDS011;10154;52.474;10.768;2022-12-24T15:33:49;5.53;;;1.50;;
19985;SDS011;10154;52.474;10.768;2022-12-24T15:38:58;6.53;;;1.70;;
19985;SDS011;10154;52.474;10.768;2022-12-24T15:41:30;4.00;;;1.10;;
19985;SDS011;10154;52.474;10.768;2022-12-24T15:44:02;5.03;;;1.37;;
19985;SDS011;10154;52.474;10.768;2022-12-24T15:46:28;4.17;;;1.17;;
19985;SDS011;10154;52.474;10.768;2022-12-24T15:48:55;5.60;;;1.40;;
19985;SDS011;10154;52.474;10.768;2022-12-24T15:51:23;5.30;;;1.70;;
19985;SDS011;10154;52.474;10.768;2022-12-24T15:53:49;6.33;;;2.30;;
19985;SDS011;10154;52.474;10.768;2022-12-24T16:01:44;5.80;;;1.50;;
19985;SDS011;10154;52.474;10.768;2022-12-24T16:04:29;7.77;;;1.80;;
19985;SDS011;10154;52.474;10.768;2022-12-24T16:07:01;7.20;;;1.60;;
19985;SDS011;10154;52.474;10.768;2022-12-24T16:09:40;6.00;;;1.83;;
19985;SDS011;10154;52.474;10.768;2022-12-24T16:12:17;7.23;;;1.90;;
19985;SDS011;10154;52.474;10.768;2022-12-24T16:14:46;7.37;;;1.63;;
19985;SDS011;10154;52.474;10.768;2022-12-24T16:17:23;6.93;;;2.17;;
19985;SDS011;10154;52.474;10.768;2022-12-24T16:19:51;8.67;;;2.00;;
19985;SDS011;10154;52.474;10.768;2022-12-24T16:22:21;9.03;;;2.60;;
19985;SDS011;10154;52.474;10.768;2022-12-24T16:24:56;12.43;;;2.13;;
19985;SDS011;10154;52.474;10.768;2022-12-24T16:27:23;4.83;;;2.33;;
19985;SDS011;10154;52.474;10.768;2022-12-24T16:29:48;7.53;;;2.20;;
19985;SDS011;10154;52.474;10.768;2022-12-24T16:32:22;7.33;;;1.90;;
19985;SDS011;10154;52.474;10.768;2022-12-24T16:34:56;7.50;;;2.50;;
19985;SDS011;10154;52.474;10.768;2022-12-24T16:37:22;8.33;;;2.80;;
19985;SDS011;10154;52.474;10.768;2022-12-24T16:39:48;5.50;;;2.20;;
19985;SDS011;10154;52.474;10.768;2022-12-24T16:42:13;7.63;;;2.17;;
19985;SDS011;10154;52.474;10.768;2022-12-24T16:44:57;8.57;;;2.27;;
19985;SDS011;10154;52.474;10.768;2022-12-24T16:47:24;9.57;;;2.40;;
19985;SDS011;10154;52.474;10.768;2022-12-24T16:49:52;7.00;;;2.30;;
19985;SDS011;10154;52.474;10.768;2022-12-24T16:52:22;10.33;;;2.80;;